La rose des vents
Donnes mto: Semaine 08/09/08 - 14/09/08 (S 37)
Date Horaire Temp. E. Hum. E. P.atmo. Pluie Vent 1mn Direction Ensoleilleme Ev.Tr. Solaire P. de rose Temp au vent Rafales
08/09/2008 00:00 18,0 C 42 % 1009,0 hPa 0,0 l/m 2,7 km/h (1 Bft) O-NO 0,00 h 0,102 mm 0 W/m 5,0 C 18,0 C 4,1 km/h (1 Bft)
08/09/2008 01:00 17,9 C 43 % 1009,6 hPa 0,0 l/m 3,0 km/h (1 Bft) SO 0,00 h 0,076 mm 0 W/m 5,0 C 17,9 C 4,1 km/h (1 Bft)
08/09/2008 02:00 17,2 C 44 % 1009,9 hPa 0,0 l/m 3,4 km/h (1 Bft) O-NO 0,00 h 0,076 mm 0 W/m 4,8 C 17,2 C 5,0 km/h (1 Bft)
08/09/2008 03:00 16,5 C 46 % 1010,1 hPa 0,0 l/m 1,7 km/h (1 Bft) NO 0,00 h 0,076 mm 0 W/m 4,8 C 16,5 C 3,2 km/h (1 Bft)
08/09/2008 04:00 16,2 C 47 % 1010,4 hPa 0,0 l/m 2,0 km/h (1 Bft) O-SO 0,00 h 0,051 mm 0 W/m 4,8 C 16,2 C 3,2 km/h (1 Bft)
08/09/2008 05:00 15,8 C 48 % 1011,0 hPa 0,0 l/m 2,6 km/h (1 Bft) NE 0,00 h 0,051 mm 0 W/m 4,8 C 15,8 C 4,1 km/h (1 Bft)
08/09/2008 06:00 15,5 C 50 % 1011,7 hPa 0,0 l/m 2,9 km/h (1 Bft) NO 0,00 h 0,051 mm 0 W/m 5,0 C 15,5 C 4,7 km/h (1 Bft)
08/09/2008 07:00 15,8 C 50 % 1012,5 hPa 0,0 l/m 6,2 km/h (2 Bft) NO 0,03 h 0,025 mm 18 W/m 5,3 C 15,8 C 9,5 km/h (2 Bft)
08/09/2008 08:00 18,8 C 46 % 1013,0 hPa 0,0 l/m 4,1 km/h (1 Bft) N-NO 0,22 h 0,051 mm 105 W/m 7,0 C 18,8 C 7,3 km/h (2 Bft)
08/09/2008 09:00 23,0 C 48 % 1013,3 hPa 0,0 l/m 2,0 km/h (1 Bft) N-NE 1,00 h 0,102 mm 368 W/m 11,3 C 23,0 C 4,5 km/h (1 Bft)
08/09/2008 10:00 24,4 C 55 % 1014,0 hPa 0,0 l/m 6,1 km/h (2 Bft) E-NE 1,00 h 0,254 mm 530 W/m 14,8 C 24,4 C 9,8 km/h (2 Bft)
08/09/2008 11:00 25,2 C 55 % 1014,4 hPa 0,0 l/m 7,6 km/h (2 Bft) E 1,00 h 0,381 mm 665 W/m 15,4 C 25,2 C 12,2 km/h (2 Bft)
08/09/2008 12:00 26,1 C 53 % 1014,3 hPa 0,0 l/m 11,4 km/h (2 Bft) E 1,00 h 0,483 mm 728 W/m 15,6 C 26,1 C 16,6 km/h (3 Bft)
08/09/2008 13:00 25,9 C 55 % 1014,4 hPa 0,0 l/m 10,7 km/h (2 Bft) E 1,00 h 0,559 mm 751 W/m 16,1 C 25,9 C 16,6 km/h (3 Bft)
08/09/2008 14:00 26,3 C 56 % 1014,7 hPa 0,0 l/m 11,0 km/h (2 Bft) E 1,00 h 0,559 mm 723 W/m 16,7 C 26,3 C 17,4 km/h (3 Bft)
08/09/2008 15:00 26,2 C 55 % 1014,3 hPa 0,0 l/m 9,8 km/h (2 Bft) E 1,00 h 0,533 mm 640 W/m 16,4 C 26,2 C 15,8 km/h (3 Bft)
08/09/2008 16:00 25,5 C 55 % 1014,1 hPa 0,0 l/m 9,7 km/h (2 Bft) E 1,00 h 0,483 mm 543 W/m 15,8 C 25,5 C 15,5 km/h (3 Bft)
08/09/2008 17:00 24,7 C 57 % 1014,3 hPa 0,0 l/m 6,4 km/h (2 Bft) S-SE 1,00 h 0,406 mm 364 W/m 15,7 C 24,7 C 10,5 km/h (2 Bft)
08/09/2008 18:00 23,8 C 60 % 1014,6 hPa 0,0 l/m 6,3 km/h (2 Bft) E 1,00 h 0,279 mm 208 W/m 15,5 C 23,8 C 10,0 km/h (2 Bft)
08/09/2008 19:00 22,0 C 66 % 1014,8 hPa 0,0 l/m 1,0 km/h (0 Bft) E-NE 0,40 h 0,178 mm 42 W/m 15,3 C 22,0 C 2,4 km/h (1 Bft)
08/09/2008 20:00 19,7 C 74 % 1015,0 hPa 0,0 l/m 1,8 km/h (1 Bft) NE 0,00 h 0,051 mm 0 W/m 15,0 C 19,7 C 3,3 km/h (1 Bft)
08/09/2008 21:00 18,3 C 77 % 1015,6 hPa 0,0 l/m 0,3 km/h (0 Bft) NE 0,00 h 0,025 mm 0 W/m 14,3 C 18,3 C 1,1 km/h (1 Bft)
08/09/2008 22:00 17,8 C 81 % 1015,8 hPa 0,0 l/m 1,0 km/h (0 Bft) NE 0,00 h 0,025 mm 0 W/m 14,4 C 17,8 C 2,1 km/h (1 Bft)
08/09/2008 23:00 17,2 C 81 % 1016,0 hPa 0,0 l/m 2,9 km/h (1 Bft) NO 0,00 h 0,025 mm 0 W/m 14,0 C 17,2 C 4,6 km/h (1 Bft)
09/09/2008 00:00 17,5 C 79 % 1016,3 hPa 0,0 l/m 5,1 km/h (1 Bft) O 0,00 h 0,025 mm 0 W/m 13,8 C 17,5 C 6,7 km/h (2 Bft)
09/09/2008 01:00 17,2 C 74 % 1016,7 hPa 0,0 l/m 5,6 km/h (1 Bft) NO 0,00 h 0,025 mm 0 W/m 12,5 C 17,2 C 7,7 km/h (2 Bft)
09/09/2008 02:00 16,3 C 71 % 1016,6 hPa 0,0 l/m 3,8 km/h (1 Bft) NO 0,00 h 0,051 mm 0 W/m 11,1 C 16,3 C 5,4 km/h (1 Bft)
09/09/2008 03:00 16,6 C 67 % 1016,4 hPa 0,0 l/m 4,8 km/h (1 Bft) NO 0,00 h 0,051 mm 0 W/m 10,4 C 16,6 C 6,6 km/h (2 Bft)
09/09/2008 04:00 16,5 C 64 % 1016,7 hPa 0,0 l/m 5,4 km/h (1 Bft) NO 0,00 h 0,051 mm 0 W/m 9,6 C 16,5 C 7,5 km/h (2 Bft)
09/09/2008 05:00 16,3 C 62 % 1017,0 hPa 0,0 l/m 3,6 km/h (1 Bft) N 0,00 h 0,051 mm 0 W/m 9,1 C 16,3 C 6,1 km/h (2 Bft)
09/09/2008 06:00 16,3 C 70 % 1016,7 hPa 0,0 l/m 2,1 km/h (1 Bft) N 0,00 h 0,051 mm 0 W/m 10,9 C 16,3 C 3,6 km/h (1 Bft)
09/09/2008 07:00 16,3 C 66 % 1017,0 hPa 0,0 l/m 3,7 km/h (1 Bft) O 0,07 h 0,025 mm 27 W/m 10,0 C 16,3 C 5,4 km/h (1 Bft)
09/09/2008 08:00 17,8 C 59 % 1017,8 hPa 0,0 l/m 1,3 km/h (1 Bft) N-NO 0,20 h 0,051 mm 114 W/m 9,7 C 17,8 C 2,9 km/h (1 Bft)
09/09/2008 09:00 21,0 C 54 % 1017,7 hPa 0,0 l/m 1,9 km/h (1 Bft) E-NE 1,00 h 0,076 mm 310 W/m 11,2 C 21,0 C 3,9 km/h (1 Bft)
09/09/2008 10:00 24,2 C 47 % 1017,6 hPa 0,0 l/m 5,7 km/h (1 Bft) E 1,00 h 0,203 mm 459 W/m 12,0 C 24,2 C 8,7 km/h (2 Bft)
09/09/2008 11:00 25,3 C 56 % 1017,6 hPa 0,0 l/m 6,1 km/h (2 Bft) E 1,00 h 0,330 mm 571 W/m 15,7 C 25,3 C 10,0 km/h (2 Bft)
09/09/2008 12:00 26,1 C 59 % 1017,3 hPa 0,0 l/m 6,5 km/h (2 Bft) E 1,00 h 0,406 mm 644 W/m 17,4 C 26,1 C 10,8 km/h (2 Bft)
09/09/2008 13:00 26,1 C 57 % 1017,3 hPa 0,0 l/m 7,5 km/h (2 Bft) E 1,00 h 0,457 mm 675 W/m 16,9 C 26,1 C 11,8 km/h (2 Bft)
09/09/2008 14:00 26,3 C 58 % 1017,2 hPa 0,0 l/m 6,8 km/h (2 Bft) E 1,00 h 0,483 mm 651 W/m 17,3 C 26,3 C 10,7 km/h (2 Bft)
09/09/2008 15:00 26,7 C 55 % 1016,8 hPa 0,0 l/m 5,3 km/h (1 Bft) E 1,00 h 0,457 mm 569 W/m 16,9 C 26,7 C 8,1 km/h (2 Bft)
09/09/2008 16:00 26,5 C 53 % 1016,4 hPa 0,0 l/m 3,6 km/h (1 Bft) E 1,00 h 0,406 mm 453 W/m 16,2 C 26,5 C 6,4 km/h (2 Bft)
09/09/2008 17:00 26,4 C 47 % 1016,4 hPa 0,0 l/m 1,9 km/h (1 Bft) SE 0,95 h 0,330 mm 304 W/m 14,1 C 26,4 C 4,2 km/h (1 Bft)
09/09/2008 18:00 25,8 C 45 % 1016,1 hPa 0,0 l/m 0,3 km/h (0 Bft) E-SE 0,58 h 0,229 mm 135 W/m 13,1 C 25,8 C 1,4 km/h (1 Bft)
09/09/2008 19:00 24,5 C 48 % 1016,0 hPa 0,0 l/m 0,6 km/h (0 Bft) SO 0,05 h 0,102 mm 26 W/m 12,7 C 24,5 C 1,3 km/h (1 Bft)
09/09/2008 20:00 23,0 C 51 % 1016,1 hPa 0,0 l/m 2,0 km/h (1 Bft) O-NO 0,00 h 0,025 mm 0 W/m 12,3 C 23,0 C 4,3 km/h (1 Bft)
09/09/2008 21:00 22,2 C 55 % 1016,0 hPa 0,0 l/m 3,2 km/h (1 Bft) O-NO 0,00 h 0,025 mm 0 W/m 12,6 C 22,2 C 5,4 km/h (1 Bft)
09/09/2008 22:00 22,2 C 54 % 1015,8 hPa 0,0 l/m 3,8 km/h (1 Bft) O-NO 0,00 h 0,076 mm 0 W/m 12,5 C 22,2 C 5,8 km/h (2 Bft)
09/09/2008 23:00 22,9 C 53 % 1016,3 hPa 0,0 l/m 5,3 km/h (1 Bft) O 0,00 h 0,076 mm 0 W/m 12,8 C 22,9 C 7,6 km/h (2 Bft)
10/09/2008 00:00 22,7 C 56 % 1016,1 hPa 0,0 l/m 4,4 km/h (1 Bft) NO 0,00 h 0,076 mm 0 W/m 13,6 C 22,7 C 6,6 km/h (2 Bft)
10/09/2008 01:00 22,8 C 57 % 1015,8 hPa 0,0 l/m 3,4 km/h (1 Bft) NO 0,00 h 0,076 mm 0 W/m 13,7 C 22,8 C 5,6 km/h (1 Bft)
10/09/2008 02:00 22,3 C 56 % 1015,5 hPa 0,0 l/m 2,2 km/h (1 Bft) NO 0,00 h 0,076 mm 0 W/m 13,1 C 22,3 C 3,9 km/h (1 Bft)
10/09/2008 03:00 22,3 C 55 % 1015,1 hPa 0,0 l/m 4,5 km/h (1 Bft) O-NO 0,00 h 0,051 mm 0 W/m 12,9 C 22,3 C 6,1 km/h (2 Bft)
10/09/2008 04:00 22,2 C 56 % 1014,6 hPa 0,0 l/m 2,2 km/h (1 Bft) NO 0,00 h 0,076 mm 0 W/m 13,0 C 22,2 C 4,1 km/h (1 Bft)
10/09/2008 05:00 21,9 C 58 % 1014,4 hPa 0,0 l/m 2,2 km/h (1 Bft) N-NE 0,00 h 0,051 mm 0 W/m 13,2 C 21,9 C 3,8 km/h (1 Bft)
10/09/2008 06:00 22,1 C 58 % 1015,1 hPa 0,0 l/m 5,0 km/h (1 Bft) O 0,00 h 0,051 mm 0 W/m 13,4 C 22,1 C 6,8 km/h (2 Bft)
10/09/2008 07:00 22,5 C 56 % 1016,1 hPa 0,0 l/m 7,6 km/h (2 Bft) O 0,00 h 0,051 mm 26 W/m 13,2 C 22,5 C 10,9 km/h (2 Bft)
10/09/2008 08:00 23,7 C 52 % 1016,1 hPa 0,0 l/m 2,5 km/h (1 Bft) O 0,47 h 0,076 mm 132 W/m 13,3 C 23,7 C 4,4 km/h (1 Bft)
10/09/2008 09:00 25,1 C 51 % 1015,7 hPa 0,0 l/m 3,7 km/h (1 Bft) S 0,18 h 0,102 mm 179 W/m 14,2 C 25,1 C 6,0 km/h (2 Bft)
10/09/2008 10:00 26,8 C 48 % 1015,2 hPa 0,0 l/m 2,2 km/h (1 Bft) N 0,42 h 0,152 mm 309 W/m 14,7 C 26,8 C 4,3 km/h (1 Bft)
10/09/2008 11:00 28,5 C 43 % 1015,1 hPa 0,0 l/m 4,6 km/h (1 Bft) E 0,55 h 0,229 mm 425 W/m 14,8 C 28,5 C 7,5 km/h (2 Bft)
10/09/2008 12:00 29,9 C 38 % 1014,7 hPa 0,0 l/m 7,4 km/h (2 Bft) E-NE 0,68 h 0,330 mm 527 W/m 14,1 C 29,9 C 10,8 km/h (2 Bft)
10/09/2008 13:00 30,0 C 35 % 1014,4 hPa 0,0 l/m 6,9 km/h (2 Bft) E 0,93 h 0,432 mm 646 W/m 12,7 C 30,0 C 11,6 km/h (2 Bft)
10/09/2008 14:00 29,9 C 35 % 1014,5 hPa 0,0 l/m 6,3 km/h (2 Bft) E 0,77 h 0,508 mm 552 W/m 12,6 C 29,9 C 10,4 km/h (2 Bft)
10/09/2008 15:00 28,6 C 38 % 1014,3 hPa 0,0 l/m 6,4 km/h (2 Bft) E 0,20 h 0,457 mm 272 W/m 13,0 C 28,6 C 9,7 km/h (2 Bft)
10/09/2008 16:00 27,5 C 42 % 1014,1 hPa 0,0 l/m 3,7 km/h (1 Bft) E-NE 0,08 h 0,254 mm 199 W/m 13,4 C 27,5 C 6,1 km/h (2 Bft)
10/09/2008 17:00 26,9 C 46 % 1013,4 hPa 0,0 l/m 2,6 km/h (1 Bft) NE 0,00 h 0,178 mm 155 W/m 14,2 C 26,9 C 5,0 km/h (1 Bft)
10/09/2008 18:00 26,4 C 47 % 1013,3 hPa 0,0 l/m 2,0 km/h (1 Bft) S-SE 0,00 h 0,127 mm 92 W/m 14,3 C 26,4 C 3,6 km/h (1 Bft)
10/09/2008 19:00 25,4 C 48 % 1012,8 hPa 0,0 l/m 1,0 km/h (0 Bft) E 0,00 h 0,076 mm 22 W/m 13,6 C 25,4 C 2,4 km/h (1 Bft)
10/09/2008 20:00 23,9 C 54 % 1012,7 hPa 0,0 l/m 3,5 km/h (1 Bft) S-SO 0,00 h 0,025 mm 0 W/m 14,1 C 23,9 C 4,7 km/h (1 Bft)
10/09/2008 21:00 23,1 C 56 % 1012,9 hPa 0,0 l/m 0,1 km/h (0 Bft) O 0,00 h 0,025 mm 0 W/m 13,8 C 23,1 C 0,3 km/h (0 Bft)
10/09/2008 22:00 22,6 C 58 % 1013,0 hPa 0,0 l/m 2,9 km/h (1 Bft) O 0,00 h 0,051 mm 0 W/m 13,9 C 22,6 C 3,8 km/h (1 Bft)
10/09/2008 23:00 22,9 C 57 % 1013,2 hPa 0,0 l/m 4,6 km/h (1 Bft) O 0,00 h 0,051 mm 0 W/m 14,0 C 22,9 C 6,6 km/h (2 Bft)
11/09/2008 00:00 22,6 C 56 % 1012,9 hPa 0,0 l/m 3,1 km/h (1 Bft) N-NO 0,00 h 0,076 mm 0 W/m 13,2 C 22,6 C 5,3 km/h (1 Bft)
11/09/2008 01:00 22,7 C 52 % 1012,4 hPa 0,0 l/m 3,4 km/h (1 Bft) NO 0,00 h 0,076 mm 0 W/m 12,3 C 22,7 C 4,8 km/h (1 Bft)
11/09/2008 02:00 22,5 C 54 % 1011,8 hPa 0,0 l/m 4,0 km/h (1 Bft) NO 0,00 h 0,076 mm 0 W/m 12,6 C 22,5 C 5,7 km/h (1 Bft)
11/09/2008 03:00 22,3 C 54 % 1011,1 hPa 0,0 l/m 2,2 km/h (1 Bft) NO 0,00 h 0,076 mm 0 W/m 12,5 C 22,3 C 3,4 km/h (1 Bft)
11/09/2008 04:00 21,3 C 58 % 1010,9 hPa 0,0 l/m 2,9 km/h (1 Bft) NE 0,00 h 0,051 mm 0 W/m 12,8 C 21,3 C 4,9 km/h (1 Bft)
11/09/2008 05:00 21,5 C 58 % 1011,1 hPa 0,0 l/m 3,7 km/h (1 Bft) O 0,00 h 0,051 mm 0 W/m 13,0 C 21,5 C 5,1 km/h (1 Bft)
11/09/2008 06:00 21,7 C 57 % 1011,0 hPa 0,0 l/m 3,3 km/h (1 Bft) N-NO 0,00 h 0,051 mm 0 W/m 12,7 C 21,7 C 5,4 km/h (1 Bft)
11/09/2008 07:00 22,1 C 55 % 1011,2 hPa 0,0 l/m 1,3 km/h (1 Bft) N-NO 0,00 h 0,025 mm 25 W/m 12,7 C 22,1 C 2,2 km/h (1 Bft)
11/09/2008 08:00 23,0 C 52 % 1011,4 hPa 0,0 l/m 1,8 km/h (1 Bft) N-NO 0,23 h 0,025 mm 116 W/m 12,7 C 23,0 C 3,6 km/h (1 Bft)
11/09/2008 09:00 25,5 C 47 % 1010,9 hPa 0,0 l/m 0,6 km/h (0 Bft) N-NO 0,43 h 0,102 mm 203 W/m 13,4 C 25,5 C 1,4 km/h (1 Bft)
11/09/2008 10:00 25,2 C 49 % 1011,0 hPa 0,0 l/m 5,3 km/h (1 Bft) S-SO 0,05 h 0,152 mm 108 W/m 13,8 C 25,2 C 7,5 km/h (2 Bft)
11/09/2008 11:00 23,9 C 62 % 1011,8 hPa 0,2 l/m 4,5 km/h (1 Bft) N 0,10 h 0,127 mm 218 W/m 16,0 C 23,9 C 7,5 km/h (2 Bft)
11/09/2008 12:00 27,7 C 46 % 1010,9 hPa 0,0 l/m 9,5 km/h (2 Bft) E-NE 0,35 h 0,178 mm 404 W/m 15,1 C 27,7 C 13,0 km/h (3 Bft)
11/09/2008 13:00 28,5 C 43 % 1010,0 hPa 0,0 l/m 8,2 km/h (2 Bft) E-NE 0,32 h 0,330 mm 442 W/m 14,8 C 28,5 C 12,1 km/h (2 Bft)
11/09/2008 14:00 27,4 C 55 % 1010,4 hPa 0,0 l/m 9,7 km/h (2 Bft) E 0,23 h 0,381 mm 432 W/m 17,3 C 27,4 C 16,1 km/h (3 Bft)
11/09/2008 15:00 25,6 C 70 % 1010,5 hPa 0,0 l/m 7,8 km/h (2 Bft) E 0,00 h 0,330 mm 256 W/m 19,6 C 25,6 C 11,5 km/h (2 Bft)
11/09/2008 16:00 27,1 C 63 % 1009,4 hPa 0,0 l/m 7,3 km/h (2 Bft) NE 0,82 h 0,203 mm 368 W/m 19,4 C 27,1 C 11,1 km/h (2 Bft)
11/09/2008 17:00 26,6 C 59 % 1008,7 hPa 0,0 l/m 7,7 km/h (2 Bft) E-NE 0,22 h 0,279 mm 193 W/m 18,0 C 26,6 C 11,9 km/h (2 Bft)
11/09/2008 18:00 24,3 C 77 % 1008,8 hPa 0,0 l/m 6,9 km/h (2 Bft) E-NE 0,00 h 0,178 mm 75 W/m 20,0 C 24,3 C 10,5 km/h (2 Bft)
11/09/2008 19:00 23,4 C 81 % 1008,6 hPa 0,0 l/m 2,1 km/h (1 Bft) E-NE 0,00 h 0,076 mm 31 W/m 20,0 C 23,4 C 3,7 km/h (1 Bft)
11/09/2008 20:00 22,0 C 84 % 1008,0 hPa 0,0 l/m 2,0 km/h (1 Bft) N 0,00 h 0,025 mm 0 W/m 19,2 C 22,0 C 4,5 km/h (1 Bft)
11/09/2008 21:00 21,4 C 86 % 1008,1 hPa 0,0 l/m 1,9 km/h (1 Bft) N-NE 0,00 h 0,000 mm 0 W/m 19,0 C 21,4 C 3,5 km/h (1 Bft)
11/09/2008 22:00 21,7 C 83 % 1008,5 hPa 0,0 l/m 1,2 km/h (1 Bft) NE 0,00 h 0,025 mm 0 W/m 18,7 C 21,7 C 2,3 km/h (1 Bft)
11/09/2008 23:00 21,4 C 81 % 1008,6 hPa 0,0 l/m 1,9 km/h (1 Bft) N-NO 0,00 h 0,025 mm 0 W/m 18,1 C 21,4 C 3,6 km/h (1 Bft)
12/09/2008 00:00 20,8 C 83 % 1008,2 hPa 0,0 l/m 1,1 km/h (1 Bft) N 0,00 h 0,025 mm 0 W/m 17,8 C 20,8 C 2,9 km/h (1 Bft)
12/09/2008 01:00 20,9 C 83 % 1007,4 hPa 0,0 l/m 0,9 km/h (0 Bft) O-NO 0,00 h 0,025 mm 0 W/m 17,9 C 20,9 C 1,6 km/h (1 Bft)
12/09/2008 02:00 20,3 C 82 % 1007,4 hPa 0,0 l/m 3,8 km/h (1 Bft) O 0,00 h 0,025 mm 0 W/m 17,2 C 20,3 C 5,3 km/h (1 Bft)
12/09/2008 03:00 20,7 C 81 % 1007,6 hPa 0,0 l/m 9,9 km/h (2 Bft) O 0,00 h 0,025 mm 0 W/m 17,4 C 20,7 C 14,0 km/h (3 Bft)
12/09/2008 04:00 20,7 C 81 % 1007,1 hPa 0,0 l/m 4,6 km/h (1 Bft) NO 0,00 h 0,051 mm 0 W/m 17,3 C 20,7 C 6,8 km/h (2 Bft)
12/09/2008 05:00 19,9 C 78 % 1007,2 hPa 0,0 l/m 4,8 km/h (1 Bft) NO 0,00 h 0,025 mm 0 W/m 15,9 C 19,9 C 7,3 km/h (2 Bft)
12/09/2008 06:00 20,5 C 76 % 1006,2 hPa 0,0 l/m 3,8 km/h (1 Bft) SO 0,00 h 0,051 mm 0 W/m 16,3 C 20,5 C 5,8 km/h (2 Bft)
12/09/2008 07:00 20,6 C 73 % 1005,8 hPa 0,0 l/m 4,1 km/h (1 Bft) O-SO 0,00 h 0,025 mm 19 W/m 15,6 C 20,6 C 5,9 km/h (2 Bft)
12/09/2008 08:00 22,0 C 70 % 1006,9 hPa 0,0 l/m 6,2 km/h (2 Bft) S-SO 0,07 h 0,025 mm 71 W/m 16,2 C 22,0 C 8,9 km/h (2 Bft)
12/09/2008 09:00 24,4 C 67 % 1007,0 hPa 0,0 l/m 2,3 km/h (1 Bft) NE 1,00 h 0,076 mm 302 W/m 17,9 C 24,4 C 4,5 km/h (1 Bft)
12/09/2008 10:00 26,1 C 58 % 1007,0 hPa 0,0 l/m 2,8 km/h (1 Bft) E-NE 0,93 h 0,203 mm 454 W/m 17,0 C 26,1 C 5,3 km/h (1 Bft)
12/09/2008 11:00 27,9 C 45 % 1006,9 hPa 0,0 l/m 5,7 km/h (1 Bft) SO 1,00 h 0,305 mm 606 W/m 14,7 C 27,9 C 9,1 km/h (2 Bft)
12/09/2008 12:00 29,6 C 43 % 1006,0 hPa 0,0 l/m 13,5 km/h (3 Bft) E 0,80 h 0,457 mm 626 W/m 15,7 C 29,6 C 19,7 km/h (3 Bft)
12/09/2008 13:00 29,1 C 43 % 1005,9 hPa 0,0 l/m 16,7 km/h (3 Bft) S-SO 0,28 h 0,559 mm 468 W/m 15,3 C 29,1 C 22,7 km/h (4 Bft)
12/09/2008 14:00 28,7 C 46 % 1005,6 hPa 0,0 l/m 20,7 km/h (4 Bft) S-SO 0,30 h 0,483 mm 399 W/m 15,8 C 28,7 C 27,5 km/h (4 Bft)
12/09/2008 15:00 28,1 C 49 % 1005,4 hPa 0,0 l/m 17,7 km/h (3 Bft) S 0,43 h 0,457 mm 365 W/m 16,2 C 28,1 C 23,5 km/h (4 Bft)
12/09/2008 16:00 28,5 C 48 % 1004,7 hPa 0,0 l/m 8,9 km/h (2 Bft) S 0,50 h 0,406 mm 305 W/m 16,4 C 28,5 C 13,2 km/h (3 Bft)
12/09/2008 17:00 28,0 C 49 % 1004,2 hPa 0,0 l/m 6,9 km/h (2 Bft) SO 0,03 h 0,279 mm 143 W/m 16,3 C 28,0 C 11,0 km/h (2 Bft)
12/09/2008 18:00 26,9 C 48 % 1003,8 hPa 0,0 l/m 11,5 km/h (2 Bft) O-SO 0,07 h 0,152 mm 74 W/m 14,8 C 26,9 C 16,9 km/h (3 Bft)
12/09/2008 19:00 26,0 C 52 % 1004,2 hPa 0,0 l/m 6,9 km/h (2 Bft) SO 0,63 h 0,152 mm 43 W/m 15,2 C 26,0 C 10,4 km/h (2 Bft)
12/09/2008 20:00 24,2 C 58 % 1004,8 hPa 0,0 l/m 2,8 km/h (1 Bft) O-SO 0,00 h 0,102 mm 0 W/m 15,4 C 24,2 C 4,5 km/h (1 Bft)
12/09/2008 21:00 22,9 C 62 % 1004,8 hPa 0,0 l/m 7,1 km/h (2 Bft) O 0,00 h 0,025 mm 0 W/m 15,2 C 22,9 C 9,8 km/h (2 Bft)
12/09/2008 22:00 21,5 C 67 % 1004,7 hPa 0,0 l/m 9,8 km/h (2 Bft) O 0,00 h 0,076 mm 0 W/m 15,0 C 21,5 C 13,9 km/h (3 Bft)
12/09/2008 23:00 20,7 C 68 % 1004,5 hPa 0,0 l/m 6,3 km/h (2 Bft) O-SO 0,00 h 0,076 mm 0 W/m 14,5 C 20,7 C 8,4 km/h (2 Bft)
13/09/2008 00:00 20,4 C 68 % 1004,9 hPa 0,0 l/m 1,9 km/h (1 Bft) O-SO 0,00 h 0,051 mm 0 W/m 14,3 C 20,4 C 3,2 km/h (1 Bft)
13/09/2008 01:00 20,2 C 71 % 1005,1 hPa 0,0 l/m 4,0 km/h (1 Bft) S-SO 0,00 h 0,051 mm 0 W/m 14,9 C 20,2 C 5,8 km/h (2 Bft)
13/09/2008 02:00 19,6 C 71 % 1005,0 hPa 0,0 l/m 4,2 km/h (1 Bft) O-NO 0,00 h 0,051 mm 0 W/m 14,2 C 19,6 C 6,2 km/h (2 Bft)
13/09/2008 03:00 18,4 C 73 % 1004,5 hPa 0,0 l/m 10,0 km/h (2 Bft) O 0,00 h 0,051 mm 0 W/m 13,5 C 18,4 C 14,3 km/h (3 Bft)
13/09/2008 04:00 17,7 C 73 % 1003,9 hPa 0,0 l/m 2,7 km/h (1 Bft) N-NO 0,00 h 0,051 mm 0 W/m 12,7 C 17,7 C 4,1 km/h (1 Bft)
13/09/2008 05:00 16,3 C 77 % 1003,5 hPa 0,0 l/m 2,2 km/h (1 Bft) S 0,00 h 0,025 mm 0 W/m 12,3 C 16,3 C 3,7 km/h (1 Bft)
13/09/2008 06:00 15,3 C 81 % 1003,2 hPa 0,0 l/m 2,6 km/h (1 Bft) NE 0,00 h 0,025 mm 0 W/m 12,1 C 15,3 C 4,5 km/h (1 Bft)
13/09/2008 07:00 14,5 C 84 % 1003,7 hPa 0,0 l/m 1,7 km/h (1 Bft) NE 0,00 h 0,000 mm 18 W/m 11,8 C 14,5 C 3,2 km/h (1 Bft)
13/09/2008 08:00 16,1 C 85 % 1003,6 hPa 0,0 l/m 6,9 km/h (2 Bft) NE 0,10 h 0,025 mm 81 W/m 13,7 C 16,1 C 10,6 km/h (2 Bft)
13/09/2008 09:00 19,3 C 72 % 1003,0 hPa 0,0 l/m 6,2 km/h (2 Bft) E-NE 1,00 h 0,076 mm 337 W/m 14,1 C 19,3 C 9,0 km/h (2 Bft)
13/09/2008 10:00 20,5 C 67 % 1003,1 hPa 0,0 l/m 5,6 km/h (1 Bft) E 1,00 h 0,229 mm 492 W/m 14,2 C 20,5 C 8,8 km/h (2 Bft)
13/09/2008 11:00 21,9 C 63 % 1003,0 hPa 0,0 l/m 7,0 km/h (2 Bft) E 1,00 h 0,330 mm 618 W/m 14,6 C 21,9 C 10,7 km/h (2 Bft)
13/09/2008 12:00 22,5 C 61 % 1002,5 hPa 0,0 l/m 10,2 km/h (2 Bft) E 1,00 h 0,406 mm 693 W/m 14,5 C 22,5 C 15,6 km/h (3 Bft)
13/09/2008 13:00 22,8 C 58 % 1001,9 hPa 0,0 l/m 11,5 km/h (2 Bft) E 1,00 h 0,483 mm 720 W/m 14,2 C 22,8 C 17,2 km/h (3 Bft)
13/09/2008 14:00 23,9 C 52 % 1001,3 hPa 0,0 l/m 12,0 km/h (2 Bft) E-NE 1,00 h 0,508 mm 698 W/m 13,3 C 23,9 C 17,3 km/h (3 Bft)
13/09/2008 15:00 25,0 C 47 % 1000,6 hPa 0,0 l/m 12,1 km/h (2 Bft) E-NE 0,97 h 0,533 mm 640 W/m 13,0 C 25,0 C 17,3 km/h (3 Bft)
13/09/2008 16:00 24,0 C 52 % 1000,2 hPa 0,0 l/m 9,5 km/h (2 Bft) E 0,47 h 0,508 mm 382 W/m 13,6 C 24,0 C 14,5 km/h (3 Bft)
13/09/2008 17:00 22,5 C 57 % 1000,3 hPa 0,0 l/m 3,9 km/h (1 Bft) E-NE 0,00 h 0,305 mm 148 W/m 13,5 C 22,5 C 6,2 km/h (2 Bft)
13/09/2008 18:00 21,6 C 56 % 1000,3 hPa 0,0 l/m 9,5 km/h (2 Bft) E 0,00 h 0,127 mm 79 W/m 12,4 C 21,6 C 14,2 km/h (3 Bft)
13/09/2008 19:00 20,1 C 47 % 1000,5 hPa 0,0 l/m 7,5 km/h (2 Bft) N-NE 0,02 h 0,127 mm 23 W/m 8,5 C 20,1 C 13,2 km/h (3 Bft)
13/09/2008 20:00 18,7 C 48 % 1001,1 hPa 0,0 l/m 7,9 km/h (2 Bft) NE 0,00 h 0,076 mm 0 W/m 7,4 C 18,7 C 12,7 km/h (3 Bft)
13/09/2008 21:00 18,8 C 47 % 1002,0 hPa 0,0 l/m 6,3 km/h (2 Bft) NO 0,00 h 0,076 mm 0 W/m 7,1 C 18,8 C 9,6 km/h (2 Bft)
13/09/2008 22:00 18,4 C 51 % 1002,4 hPa 0,0 l/m 6,4 km/h (2 Bft) E-NE 0,00 h 0,076 mm 0 W/m 8,0 C 18,4 C 10,1 km/h (2 Bft)
13/09/2008 23:00 17,6 C 57 % 1003,2 hPa 0,0 l/m 5,7 km/h (1 Bft) O-SO 0,00 h 0,076 mm 0 W/m 9,0 C 17,6 C 8,4 km/h (2 Bft)
14/09/2008 00:00 16,8 C 60 % 1003,6 hPa 0,0 l/m 3,5 km/h (1 Bft) N 0,00 h 0,076 mm 0 W/m 9,0 C 16,8 C 5,5 km/h (1 Bft)
14/09/2008 01:00 16,2 C 63 % 1003,7 hPa 0,0 l/m 3,7 km/h (1 Bft) N-NO 0,00 h 0,051 mm 0 W/m 9,1 C 16,2 C 5,2 km/h (1 Bft)
14/09/2008 02:00 15,7 C 67 % 1004,0 hPa 0,0 l/m 4,5 km/h (1 Bft) O 0,00 h 0,051 mm 0 W/m 9,5 C 15,7 C 7,0 km/h (2 Bft)
14/09/2008 03:00 15,3 C 67 % 1004,1 hPa 0,0 l/m 2,1 km/h (1 Bft) NO 0,00 h 0,051 mm 0 W/m 9,3 C 15,3 C 3,6 km/h (1 Bft)
14/09/2008 04:00 14,7 C 68 % 1004,2 hPa 0,0 l/m 1,4 km/h (1 Bft) O 0,00 h 0,025 mm 0 W/m 8,9 C 14,7 C 2,3 km/h (1 Bft)
14/09/2008 05:00 14,4 C 68 % 1004,3 hPa 0,0 l/m 4,0 km/h (1 Bft) O 0,00 h 0,025 mm 0 W/m 8,6 C 14,4 C 5,1 km/h (1 Bft)
14/09/2008 06:00 13,8 C 67 % 1004,9 hPa 0,0 l/m 3,6 km/h (1 Bft) NO 0,00 h 0,051 mm 0 W/m 7,7 C 13,8 C 5,3 km/h (1 Bft)
14/09/2008 07:00 13,7 C 65 % 1005,2 hPa 0,0 l/m 3,1 km/h (1 Bft) O-NO 0,02 h 0,025 mm 21 W/m 7,2 C 13,7 C 5,0 km/h (1 Bft)
14/09/2008 08:00 14,8 C 63 % 1006,0 hPa 0,0 l/m 1,9 km/h (1 Bft) N-NO 0,02 h 0,025 mm 73 W/m 7,8 C 14,8 C 3,9 km/h (1 Bft)
14/09/2008 09:00 18,6 C 50 % 1006,5 hPa 0,0 l/m 2,2 km/h (1 Bft) NE 0,63 h 0,051 mm 283 W/m 7,9 C 18,6 C 4,3 km/h (1 Bft)
14/09/2008 10:00 21,5 C 46 % 1007,1 hPa 0,0 l/m 6,8 km/h (2 Bft) E-NE 0,63 h 0,178 mm 402 W/m 9,2 C 21,5 C 11,1 km/h (2 Bft)
14/09/2008 11:00 21,7 C 57 % 1007,6 hPa 0,0 l/m 10,3 km/h (2 Bft) E 0,87 h 0,279 mm 553 W/m 12,7 C 21,7 C 16,4 km/h (3 Bft)
14/09/2008 12:00 21,7 C 57 % 1007,6 hPa 0,0 l/m 8,7 km/h (2 Bft) S 0,45 h 0,406 mm 498 W/m 12,7 C 21,7 C 13,5 km/h (3 Bft)
14/09/2008 13:00 21,6 C 58 % 1007,4 hPa 0,0 l/m 11,9 km/h (2 Bft) S 0,35 h 0,356 mm 421 W/m 13,0 C 21,6 C 17,0 km/h (3 Bft)
14/09/2008 14:00 21,4 C 58 % 1007,5 hPa 0,0 l/m 13,6 km/h (3 Bft) S 0,12 h 0,330 mm 312 W/m 12,9 C 21,4 C 19,2 km/h (3 Bft)
14/09/2008 15:00 20,6 C 61 % 1007,6 hPa 0,0 l/m 12,0 km/h (2 Bft) S-SE 0,07 h 0,279 mm 230 W/m 12,7 C 20,6 C 16,7 km/h (3 Bft)
14/09/2008 16:00 20,9 C 59 % 1007,8 hPa 0,0 l/m 11,5 km/h (2 Bft) S 0,38 h 0,229 mm 292 W/m 12,5 C 20,9 C 16,4 km/h (3 Bft)
14/09/2008 17:00 20,4 C 58 % 1008,3 hPa 0,0 l/m 12,0 km/h (2 Bft) S-SO 0,08 h 0,254 mm 136 W/m 11,9 C 20,4 C 16,7 km/h (3 Bft)
14/09/2008 18:00 20,2 C 59 % 1008,6 hPa 0,0 l/m 11,1 km/h (2 Bft) S-SO 0,45 h 0,152 mm 119 W/m 12,0 C 20,2 C 15,3 km/h (3 Bft)
14/09/2008 19:00 19,1 C 64 % 1008,7 hPa 0,0 l/m 4,8 km/h (1 Bft) S-SO 0,07 h 0,152 mm 23 W/m 12,1 C 19,1 C 6,8 km/h (2 Bft)
14/09/2008 20:00 17,8 C 72 % 1008,8 hPa 0,0 l/m 3,3 km/h (1 Bft) SO 0,00 h 0,051 mm 0 W/m 12,6 C 17,8 C 4,6 km/h (1 Bft)
14/09/2008 21:00 16,6 C 75 % 1008,9 hPa 0,0 l/m 4,4 km/h (1 Bft) O-NO 0,00 h 0,025 mm 0 W/m 12,3 C 16,6 C 6,1 km/h (2 Bft)
14/09/2008 22:00 15,9 C 77 % 1009,1 hPa 0,0 l/m 4,8 km/h (1 Bft) O-NO 0,00 h 0,025 mm 0 W/m 11,9 C 15,9 C 7,1 km/h (2 Bft)
14/09/2008 23:00 15,6 C 77 % 1009,1 hPa 0,0 l/m 2,8 km/h (1 Bft) O-NO 0,00 h 0,025 mm 0 W/m 11,4 C 15,6 C 4,9 km/h (1 Bft)
Min-Date _ 14/09/08 10/09/08 13/09/08 - 08/09/08 - - - - 08/09/08 14/09/08 08/09/08
_ Min-Heure 07:42 12:56 17:00 - 00:10 - - - - 05:02 07:42 00:10
Minimum _ 13,4 C 31 % 1000,1 hPa - 0,0 km/h (0 Bft) - - - - 4,3 C 13,4 C 0,0 km/h (0 Bft)
Max-Date _ 10/09/08 13/09/08 09/09/08 11/09/08 12/09/08 - 08/09/08 08/09/08 12/09/08 11/09/08 10/09/08 12/09/08
_ Max-Heure 12:56 08:05 08:15 11:07 14:35 - 07:13 13:00 13:08 15:58 12:56 12:55
Maximum _ 31,4 C 87 % 1018,0 hPa 0,2 l/m 27,4 km/h
S-SO (4 Bft)
- 0,02 h 0,559 mm 935 W/m 21,3 C 31,4 C 33,8 km/h
S (5 Bft)
Moyenne _ 21,9 C 59 % 1010,0 hPa #0,2 l/m 5,3 km/h (1 Bft) E #45:16 h #26,986 mm 321 W/m 13,3 C 21,9 C 8,1 km/h (2 Bft)
Roquefort les pins